This is the latest recevied weather packets stored in our database for station/object WX0ABE-13. If no packets are shown the sender has not sent any weather packets the latest 10 day(s).
| Time | Temp. | Humidity | Pressure | Rain* | Wind** | Luminosity | Snow |
|---|---|---|---|---|---|---|---|
| 1788244353 | 17.78° C | 91% | 1017.6 hPa | 0 mm | - | 0 W/m² | - |
| 1788244049 | 17.78° C | 90% | 1017.8 hPa | 0 mm | - | 0 W/m² | - |
| 1788243745 | 17.78° C | 90% | 1017.7 hPa | 0 mm | - | 0 W/m² | - |
| 1788243441 | 17.78° C | 89% | 1017.8 hPa | 0 mm | - | 0 W/m² | - |
| 1788243140 | 17.78° C | 89% | 1017.7 hPa | 0 mm | - | 0 W/m² | - |
| 1788242836 | 17.78° C | 89% | 1017.8 hPa | 0 mm | - | 0 W/m² | - |
| 1788242531 | 17.78° C | 89% | 1017.8 hPa | 1.27 mm | - | 0 W/m² | - |
| 1788242226 | 17.78° C | 88% | 1017.8 hPa | 1.27 mm | - | 0 W/m² | - |
| 1788241923 | 17.78° C | 87% | 1018.1 hPa | 3.05 mm | - | 0 W/m² | - |
| 1788241620 | 17.78° C | 86% | 1018.4 hPa | 3.05 mm | - | 0 W/m² | - |
| 1788241316 | 17.78° C | 85% | 1018.9 hPa | 3.05 mm | - | 0 W/m² | - |
| 1788241011 | 18.33° C | 84% | 1019.4 hPa | 6.1 mm | - | 0 W/m² | - |
| 1788240707 | 18.33° C | 81% | 1019.5 hPa | 6.1 mm | - | 0 W/m² | - |
| 1788240402 | 18.89° C | 79% | 1019.8 hPa | 3.05 mm | - | 0 W/m² | - |
| 1788240098 | 19.44° C | 78% | 1019.9 hPa | 6.1 mm | - | 0 W/m² | - |
| 1788239797 | 21.11° C | 74% | 1019.8 hPa | 4.83 mm | - | 0 W/m² | - |
| 1788239496 | 22.22° C | 67% | 1019.9 hPa | 0 mm | - | 0 W/m² | - |
| 1788239192 | 22.78° C | 60% | 1019.3 hPa | 0 mm | - | 0 W/m² | - |
| 1788238887 | 22.78° C | 63% | 1018.7 hPa | 0 mm | - | 0 W/m² | - |
| 1788238587 | 22.78° C | 60% | 1018.5 hPa | 0 mm | - | 0 W/m² | - |
| 1788238282 | 23.33° C | 58% | 1018.5 hPa | 0 mm | - | 0 W/m² | - |
| 1788237978 | 23.33° C | 58% | 1018.9 hPa | 0 mm | - | 0 W/m² | - |
| 1788237674 | 23.33° C | 59% | 1018.6 hPa | 0 mm | - | 0 W/m² | - |
| 1788237369 | 23.33° C | 58% | 1018.5 hPa | 0 mm | - | 0 W/m² | - |
| 1788237064 | 22.78° C | 60% | 1018.4 hPa | 0 mm | - | 0 W/m² | - |
* Rain latest hour (hover to see other rain measurements)
** Current wind speed in m/s (hover to see current wind gust speed)